Time;durP1;ratioP1;P1;durP2;ratioP2;P2;SDS_P1;SDS_P2;PMS_P1;PMS_P2;Temp;Humidity;BMP_temperature;BMP_pressure;BME280_temperature;BME280_humidity;BME280_pressure;Samples;Min_cycle;Max_cycle;Signal;HPM_P1;HPM_P2
2023/05/23 00:00:43;;;;;;;2.97;2.33;;;20.50;82.10;;;;;;5141880;27;45447;-70
2023/05/23 00:03:11;;;;;;;2.05;1.83;;;20.50;82.00;;;;;;5132120;27;45468;-69
2023/05/23 00:05:37;;;;;;;3.00;2.13;;;20.50;81.90;;;;;;5131837;27;45379;-69
2023/05/23 00:08:04;;;;;;;2.47;2.17;;;20.50;82.00;;;;;;5142139;27;45339;-69
2023/05/23 00:10:31;;;;;;;2.80;2.40;;;20.50;81.90;;;;;;5127925;27;45267;-69
2023/05/23 00:12:58;;;;;;;2.50;1.90;;;20.50;81.80;;;;;;5130220;27;45351;-69
2023/05/23 00:15:24;;;;;;;2.65;1.98;;;20.50;81.70;;;;;;5135878;27;45591;-69
2023/05/23 00:17:53;;;;;;;4.07;2.10;;;20.50;81.70;;;;;;5136747;27;46884;-70
2023/05/23 00:20:20;;;;;;;2.38;2.00;;;20.50;81.70;;;;;;5146960;27;46066;-69
2023/05/23 00:22:47;;;;;;;3.22;2.08;;;20.60;81.70;;;;;;5126887;27;45236;-69
2023/05/23 00:25:14;;;;;;;3.38;2.20;;;20.60;81.70;;;;;;5130615;27;45581;-69
2023/05/23 00:27:40;;;;;;;2.55;2.13;;;20.60;81.70;;;;;;5127022;27;47387;-70
2023/05/23 00:30:08;;;;;;;3.15;2.20;;;20.60;81.60;;;;;;5132377;27;45331;-69
2023/05/23 00:32:35;;;;;;;3.28;2.42;;;20.60;81.50;;;;;;5126598;27;45378;-69
2023/05/23 00:35:03;;;;;;;2.72;2.20;;;20.60;81.50;;;;;;5138317;27;45261;-69
2023/05/23 00:37:31;;;;;;;2.35;1.98;;;20.50;81.50;;;;;;5147322;27;47047;-69
2023/05/23 00:39:57;;;;;;;3.35;2.05;;;20.60;81.50;;;;;;5135535;27;45338;-69
2023/05/23 00:42:24;;;;;;;2.95;2.33;;;20.60;81.70;;;;;;5134334;27;45478;-69
2023/05/23 00:44:51;;;;;;;2.90;2.22;;;20.50;81.70;;;;;;5134541;27;45328;-69
2023/05/23 00:47:18;;;;;;;2.97;2.40;;;20.50;81.70;;;;;;5123861;27;48089;-69
2023/05/23 00:49:45;;;;;;;2.92;2.20;;;20.50;81.70;;;;;;5139722;27;45759;-69
2023/05/23 00:52:15;;;;;;;3.35;2.45;;;20.50;81.70;;;;;;5132005;27;45374;-69
2023/05/23 00:54:42;;;;;;;3.30;2.33;;;20.50;81.60;;;;;;5125545;27;45450;-69
2023/05/23 00:57:10;;;;;;;3.70;2.38;;;20.50;81.70;;;;;;5126618;27;47568;-69
2023/05/23 00:59:38;;;;;;;2.70;2.10;;;20.50;81.60;;;;;;5134321;27;45369;-69
2023/05/23 01:02:05;;;;;;;3.22;2.28;;;20.50;81.60;;;;;;5127456;27;45413;-70
2023/05/23 01:04:32;;;;;;;2.53;2.25;;;20.50;81.60;;;;;;5136226;27;45419;-69
2023/05/23 01:07:00;;;;;;;2.72;2.00;;;20.50;81.60;;;;;;5124195;27;47009;-70
2023/05/23 01:09:29;;;;;;;2.85;2.20;;;20.50;81.60;;;;;;5125631;27;45760;-68
2023/05/23 01:12:11;;;;;;;2.85;2.28;;;20.60;81.60;;;;;;5125339;27;45430;-69
2023/05/23 01:14:44;;;;;;;3.05;2.38;;;20.50;81.50;;;;;;5130199;27;45480;-69
2023/05/23 01:17:26;;;;;;;3.60;2.50;;;20.50;81.40;;;;;;5124866;27;45369;-69
2023/05/23 01:20:03;;;;;;;2.80;2.00;;;20.50;81.30;;;;;;5125134;27;45967;-69
2023/05/23 01:22:59;;;;;;;2.08;1.88;;;20.60;81.30;;;;;;5125262;27;45269;-69
2023/05/23 01:25:44;;;;;;;2.97;2.22;;;20.50;81.00;;;;;;5124611;27;45478;-69
2023/05/23 01:28:15;;;;;;;2.85;2.15;;;20.50;80.80;;;;;;5128322;27;45391;-69
2023/05/23 01:30:44;;;;;;;2.15;1.95;;;20.50;80.80;;;;;;5136317;27;45689;-70
2023/05/23 01:33:13;;;;;;;2.15;1.77;;;20.50;80.80;;;;;;5125286;27;45324;-69
2023/05/23 01:35:42;;;;;;;2.35;1.80;;;20.50;80.70;;;;;;5124566;27;45420;-69
2023/05/23 01:38:09;;;;;;;2.00;1.70;;;20.50;80.60;;;;;;5135510;27;47351;-69
2023/05/23 01:40:36;;;;;;;2.13;1.83;;;20.50;80.50;;;;;;5139114;27;45391;-69
2023/05/23 01:43:03;;;;;;;3.67;2.05;;;20.50;80.50;;;;;;5140973;27;45382;-69
2023/05/23 01:45:32;;;;;;;1.77;1.48;;;20.50;80.50;;;;;;5137370;27;45435;-70
2023/05/23 01:48:00;;;;;;;3.50;1.88;;;20.50;80.40;;;;;;5134757;27;46215;-69
2023/05/23 01:50:27;;;;;;;2.80;1.73;;;20.50;80.40;;;;;;5145450;27;45364;-69
2023/05/23 01:52:54;;;;;;;3.90;1.70;;;20.50;80.50;;;;;;5125124;27;45284;-69
2023/05/23 01:55:23;;;;;;;1.70;1.60;;;20.50;80.50;;;;;;5136707;27;45632;-69
2023/05/23 01:57:51;;;;;;;1.95;1.67;;;20.50;80.50;;;;;;5123006;27;45425;-69
2023/05/23 02:00:18;;;;;;;1.95;1.55;;;20.50;80.40;;;;;;5123748;27;45466;-70
2023/05/23 02:02:46;;;;;;;2.03;1.75;;;20.50;80.30;;;;;;5132753;27;45324;-69
2023/05/23 02:05:13;;;;;;;2.58;1.70;;;20.50;80.20;;;;;;5128407;27;45510;-69
2023/05/23 02:07:40;;;;;;;1.90;1.52;;;20.50;80.20;;;;;;5135528;27;46393;-69
2023/05/23 02:10:08;;;;;;;1.55;1.42;;;20.50;80.10;;;;;;5140513;27;45311;-69
2023/05/23 02:12:36;;;;;;;2.45;1.80;;;20.50;80.00;;;;;;5124294;27;45313;-70
2023/05/23 02:15:03;;;;;;;2.45;1.60;;;20.50;80.00;;;;;;5132942;27;45268;-69
2023/05/23 02:17:30;;;;;;;3.33;1.83;;;20.50;80.00;;;;;;5137560;27;46075;-69
2023/05/23 02:19:58;;;;;;;2.67;1.50;;;20.50;79.90;;;;;;5145715;27;45538;-70
2023/05/23 02:22:25;;;;;;;1.55;1.45;;;20.50;79.90;;;;;;5123388;27;45432;-69
2023/05/23 02:24:52;;;;;;;2.03;1.42;;;20.50;79.90;;;;;;5125317;27;45298;-69
2023/05/23 02:27:19;;;;;;;1.85;1.48;;;20.50;79.90;;;;;;5132184;27;47013;-69
2023/05/23 02:29:46;;;;;;;4.65;1.58;;;20.50;79.90;;;;;;5132572;27;45491;-68
2023/05/23 02:32:13;;;;;;;1.85;1.67;;;20.50;79.80;;;;;;5124130;27;45251;-69
2023/05/23 02:34:40;;;;;;;1.80;1.50;;;20.50;79.80;;;;;;5133720;27;45248;-69
2023/05/23 02:37:08;;;;;;;2.53;1.70;;;20.50;79.60;;;;;;5142509;27;45296;-69
2023/05/23 02:39:35;;;;;;;2.60;1.85;;;20.50;79.60;;;;;;5128514;27;45476;-69
2023/05/23 02:42:03;;;;;;;1.67;1.40;;;20.50;79.60;;;;;;5128698;27;45423;-69
2023/05/23 02:44:30;;;;;;;1.95;1.75;;;20.50;79.60;;;;;;5153346;27;45349;-69
2023/05/23 02:46:57;;;;;;;1.92;1.70;;;20.50;79.70;;;;;;5122699;27;46355;-70
2023/05/23 02:49:23;;;;;;;2.50;1.65;;;20.50;79.70;;;;;;5130792;27;45277;-69
2023/05/23 02:51:50;;;;;;;3.15;1.80;;;20.50;79.40;;;;;;5124701;27;45315;-69
2023/05/23 02:54:18;;;;;;;2.75;1.48;;;20.50;79.50;;;;;;5123525;27;45572;-70
2023/05/23 02:56:45;;;;;;;1.70;1.33;;;20.50;79.50;;;;;;5131952;27;47151;-69
2023/05/23 02:59:12;;;;;;;2.47;1.60;;;20.50;79.40;;;;;;5130270;27;45422;-69
2023/05/23 03:01:39;;;;;;;2.50;1.77;;;20.50;79.40;;;;;;5127890;27;45354;-69
2023/05/23 03:04:06;;;;;;;3.10;1.60;;;20.50;79.40;;;;;;5123635;27;45572;-69
2023/05/23 03:06:32;;;;;;;1.95;1.52;;;20.50;79.40;;;;;;5130736;27;46252;-69
2023/05/23 03:08:59;;;;;;;2.20;1.42;;;20.50;79.40;;;;;;5128703;27;45456;-68
2023/05/23 03:11:28;;;;;;;1.95;1.60;;;20.50;79.40;;;;;;5126331;27;45486;-70
2023/05/23 03:13:55;;;;;;;1.80;1.50;;;20.50;79.40;;;;;;5137749;27;45274;-70
2023/05/23 03:16:22;;;;;;;3.88;1.70;;;20.50;79.30;;;;;;5138002;27;45286;-69
2023/05/23 03:18:49;;;;;;;2.03;1.70;;;20.50;79.20;;;;;;5124529;27;45448;-69
2023/05/23 03:21:16;;;;;;;3.00;1.50;;;20.50;79.20;;;;;;5130033;27;45456;-69
2023/05/23 03:23:43;;;;;;;2.22;1.50;;;20.50;79.20;;;;;;5126670;27;45332;-69
2023/05/23 03:26:10;;;;;;;1.98;1.63;;;20.50;79.20;;;;;;5126336;27;47078;-69
2023/05/23 03:28:38;;;;;;;2.47;1.80;;;20.50;79.00;;;;;;5144398;27;45428;-69
2023/05/23 03:31:05;;;;;;;2.28;1.58;;;20.50;78.80;;;;;;5146034;27;45489;-69
2023/05/23 03:33:32;;;;;;;1.90;1.65;;;20.50;79.00;;;;;;5142779;27;45464;-70
2023/05/23 03:35:59;;;;;;;2.00;1.45;;;20.50;78.90;;;;;;5139900;27;47172;-69
2023/05/23 03:38:27;;;;;;;2.28;1.40;;;20.40;78.90;;;;;;5131120;27;45376;-70
2023/05/23 03:40:54;;;;;;;2.05;1.77;;;20.40;78.70;;;;;;5132254;27;45369;-70
2023/05/23 03:43:20;;;;;;;2.47;1.60;;;20.50;78.70;;;;;;5136251;27;45411;-69
2023/05/23 03:45:48;;;;;;;1.58;1.42;;;20.40;78.70;;;;;;5126920;27;48413;-69
2023/05/23 03:48:15;;;;;;;1.60;1.40;;;20.40;78.80;;;;;;5139407;27;45373;-69
2023/05/23 03:50:42;;;;;;;1.40;1.30;;;20.40;78.80;;;;;;5133194;27;45346;-69
2023/05/23 03:53:09;;;;;;;2.60;1.63;;;20.40;78.90;;;;;;5138322;27;45449;-69
2023/05/23 03:55:36;;;;;;;1.92;1.58;;;20.40;78.80;;;;;;5138691;27;46283;-70
2023/05/23 03:58:03;;;;;;;1.77;1.40;;;20.40;78.60;;;;;;5138827;27;45373;-69
2023/05/23 04:00:30;;;;;;;1.80;1.60;;;20.50;78.70;;;;;;5138296;27;45246;-70
2023/05/23 04:02:58;;;;;;;1.83;1.42;;;20.40;78.60;;;;;;5138063;27;45501;-69
2023/05/23 04:05:25;;;;;;;2.40;1.52;;;20.40;78.60;;;;;;5138296;27;45248;-69
2023/05/23 04:07:52;;;;;;;1.70;1.55;;;20.40;78.60;;;;;;5140949;27;45405;-69
2023/05/23 04:10:19;;;;;;;2.72;1.70;;;20.50;78.70;;;;;;5144244;27;45374;-69
2023/05/23 04:12:46;;;;;;;2.75;1.67;;;20.40;78.60;;;;;;5130438;27;45581;-69
2023/05/23 04:15:13;;;;;;;1.70;1.48;;;20.50;78.70;;;;;;5136472;27;46095;-69
2023/05/23 04:17:40;;;;;;;1.80;1.40;;;20.50;78.70;;;;;;5153276;27;45374;-70
2023/05/23 04:20:09;;;;;;;2.28;1.55;;;20.50;78.70;;;;;;5152355;27;45351;-69
2023/05/23 04:22:36;;;;;;;2.08;1.40;;;20.40;78.60;;;;;;5138720;27;45398;-69
2023/05/23 04:25:05;;;;;;;1.70;1.40;;;20.50;78.70;;;;;;5140859;27;46984;-69
2023/05/23 04:27:31;;;;;;;1.92;1.60;;;20.50;78.70;;;;;;5125422;27;45329;-69
2023/05/23 04:29:59;;;;;;;3.10;1.85;;;20.50;78.70;;;;;;5129676;27;45327;-69
2023/05/23 04:32:26;;;;;;;1.77;1.42;;;20.40;78.60;;;;;;5133965;27;45927;-69
2023/05/23 04:34:52;;;;;;;2.90;1.50;;;20.40;78.60;;;;;;5133794;27;46603;-69
2023/05/23 04:37:24;;;;;;;2.22;1.70;;;20.40;78.60;;;;;;5144551;27;45751;-69
2023/05/23 04:39:51;;;;;;;2.45;1.70;;;20.40;78.60;;;;;;5138668;27;45457;-69
2023/05/23 04:42:23;;;;;;;1.52;1.30;;;20.40;78.60;;;;;;5133189;27;45714;-69
2023/05/23 04:44:50;;;;;;;2.40;1.65;;;20.40;78.60;;;;;;5135044;27;47056;-69
2023/05/23 04:47:16;;;;;;;1.88;1.33;;;20.40;78.60;;;;;;5148738;27;45309;-69
2023/05/23 04:49:43;;;;;;;1.95;1.63;;;20.40;78.60;;;;;;5138195;27;45394;-69
2023/05/23 04:52:10;;;;;;;2.65;1.85;;;20.40;78.60;;;;;;5136627;27;45464;-69
2023/05/23 04:54:39;;;;;;;1.75;1.40;;;20.40;78.60;;;;;;5138811;27;46627;-69
2023/05/23 04:57:06;;;;;;;3.20;1.60;;;20.50;78.70;;;;;;5139967;27;45421;-68
2023/05/23 04:59:33;;;;;;;1.83;1.27;;;20.50;78.70;;;;;;5129092;27;45236;-69
2023/05/23 05:01:59;;;;;;;3.78;1.92;;;20.50;78.70;;;;;;5126100;27;45294;-69
2023/05/23 05:04:26;;;;;;;2.55;1.45;;;20.50;78.70;;;;;;5131681;27;46256;-69
2023/05/23 05:06:53;;;;;;;1.95;1.60;;;20.50;79.70;;;;;;5142284;27;45356;-69
2023/05/23 05:09:20;;;;;;;2.80;1.73;;;20.50;78.70;;;;;;5125712;27;45560;-68
2023/05/23 05:11:49;;;;;;;2.55;1.70;;;20.50;78.70;;;;;;5125861;27;45330;-69
2023/05/23 05:14:15;;;;;;;2.00;1.60;;;20.50;78.70;;;;;;5128618;27;48951;-69
2023/05/23 05:16:43;;;;;;;2.38;1.80;;;20.50;78.70;;;;;;5132290;27;45426;-69
2023/05/23 05:19:10;;;;;;;2.08;1.67;;;20.50;78.70;;;;;;5141124;27;45286;-68
2023/05/23 05:21:37;;;;;;;2.20;1.70;;;20.50;78.70;;;;;;5134759;27;45343;-69
2023/05/23 05:24:03;;;;;;;2.97;1.50;;;20.50;78.70;;;;;;5129811;27;45310;-69
2023/05/23 05:26:31;;;;;;;2.33;1.70;;;20.50;79.80;;;;;;5145677;27;45314;-69
2023/05/23 05:28:59;;;;;;;2.92;1.70;;;20.50;78.70;;;;;;5133191;27;45570;-69
2023/05/23 05:31:26;;;;;;;2.83;1.75;;;20.50;78.70;;;;;;5129300;27;45447;-69
2023/05/23 05:33:53;;;;;;;2.40;1.80;;;20.40;78.60;;;;;;5129285;27;46256;-69
2023/05/23 05:36:20;;;;;;;2.40;1.83;;;20.40;78.70;;;;;;5140351;27;45457;-71
2023/05/23 05:38:47;;;;;;;1.40;1.30;;;20.40;78.60;;;;;;5126089;27;45655;-70
2023/05/23 05:41:14;;;;;;;1.70;1.48;;;20.40;78.60;;;;;;5127895;27;45363;-71
2023/05/23 05:43:40;;;;;;;1.42;1.27;;;20.40;78.60;;;;;;5136419;27;48134;-70
2023/05/23 05:46:09;;;;;;;2.63;1.50;;;20.40;78.60;;;;;;5134685;27;45405;-70
2023/05/23 05:48:35;;;;;;;4.00;1.73;;;20.40;78.60;;;;;;5133100;27;45366;-70
2023/05/23 05:51:03;;;;;;;2.70;1.75;;;20.40;78.60;;;;;;5132306;27;45249;-69
2023/05/23 05:53:29;;;;;;;3.35;1.70;;;20.40;78.60;;;;;;5140807;27;47692;-70
2023/05/23 05:55:56;;;;;;;2.90;1.90;;;20.40;78.60;;;;;;5132338;27;45286;-69
2023/05/23 05:58:23;;;;;;;3.03;1.80;;;20.50;78.70;;;;;;5133448;27;45298;-69
2023/05/23 06:00:49;;;;;;;2.65;1.67;;;20.40;78.60;;;;;;5124676;27;45548;-69
2023/05/23 06:03:18;;;;;;;2.53;1.83;;;20.40;78.60;;;;;;5125229;27;47548;-69
2023/05/23 06:05:44;;;;;;;2.67;1.83;;;20.50;78.40;;;;;;5123687;27;45364;-69
2023/05/23 06:08:11;;;;;;;2.78;1.80;;;20.40;77.70;;;;;;5130379;27;45311;-69
2023/05/23 06:10:38;;;;;;;2.65;1.90;;;20.40;77.40;;;;;;5127186;27;45557;-69
2023/05/23 06:13:05;;;;;;;2.90;1.95;;;20.40;77.30;;;;;;5131666;27;47661;-71
2023/05/23 06:15:31;;;;;;;4.45;2.05;;;20.40;77.10;;;;;;5134289;27;46680;-71
2023/05/23 06:17:58;;;;;;;3.28;1.95;;;20.40;77.00;;;;;;5132913;27;45364;-72
2023/05/23 06:20:27;;;;;;;2.10;1.65;;;20.40;77.00;;;;;;5131011;27;45446;-72
2023/05/23 06:22:54;;;;;;;3.10;2.00;;;20.40;77.10;;;;;;5133852;27;47264;-70
2023/05/23 06:25:20;;;;;;;3.13;1.58;;;20.40;77.50;;;;;;5128908;27;45402;-70
2023/05/23 06:27:47;;;;;;;2.38;1.80;;;20.40;77.70;;;;;;5132170;27;46053;-68
2023/05/23 06:30:15;;;;;;;2.95;1.90;;;20.50;78.00;;;;;;5124494;27;45276;-70
2023/05/23 06:32:42;;;;;;;2.80;1.90;;;20.40;77.80;;;;;;5126677;27;48183;-69
2023/05/23 06:35:09;;;;;;;2.97;1.90;;;20.40;77.40;;;;;;5143602;27;45267;-70
2023/05/23 06:37:39;;;;;;;2.53;1.90;;;20.40;77.40;;;;;;5131397;27;45422;-69
2023/05/23 06:40:06;;;;;;;2.50;1.90;;;20.40;77.20;;;;;;5131520;27;45348;-70
2023/05/23 06:42:33;;;;;;;2.20;1.80;;;20.40;77.20;;;;;;5136128;27;45425;-69
2023/05/23 06:44:59;;;;;;;2.55;1.80;;;20.40;77.20;;;;;;5134749;27;45407;-69
2023/05/23 06:47:26;;;;;;;2.65;1.95;;;20.50;77.00;;;;;;5121249;27;45411;-70
2023/05/23 06:49:53;;;;;;;2.33;1.77;;;20.50;77.10;;;;;;5124988;27;45324;-70
2023/05/23 06:52:19;;;;;;;3.50;1.75;;;20.50;77.20;;;;;;5132469;27;46718;-69
2023/05/23 06:54:48;;;;;;;2.50;1.70;;;20.50;77.40;;;;;;5125871;27;45480;-71
2023/05/23 06:57:15;;;;;;;2.95;1.92;;;20.50;77.40;;;;;;5125297;27;45591;-69
2023/05/23 06:59:41;;;;;;;3.10;2.10;;;20.50;77.50;;;;;;5125301;27;45417;-69
2023/05/23 07:02:08;;;;;;;2.15;1.67;;;20.50;77.50;;;;;;5124314;27;46594;-69
2023/05/23 07:04:35;;;;;;;3.28;1.90;;;20.50;77.60;;;;;;5132880;27;45279;-69
2023/05/23 07:07:02;;;;;;;3.47;1.98;;;20.50;77.70;;;;;;5133593;27;45335;-69
2023/05/23 07:09:28;;;;;;;2.67;1.70;;;20.50;77.70;;;;;;5134259;27;45602;-69
2023/05/23 07:11:57;;;;;;;3.30;2.13;;;20.50;77.70;;;;;;5130185;27;46351;-69
2023/05/23 07:14:23;;;;;;;2.75;1.73;;;20.50;77.80;;;;;;5147281;27;45439;-69
2023/05/23 07:16:50;;;;;;;2.70;1.65;;;20.50;77.90;;;;;;5140822;27;45233;-69
2023/05/23 07:19:17;;;;;;;2.30;1.60;;;20.50;78.00;;;;;;5147828;27;45221;-69
2023/05/23 07:21:44;;;;;;;3.33;1.80;;;20.50;78.00;;;;;;5128980;27;46413;-69
2023/05/23 07:24:10;;;;;;;2.20;1.65;;;20.50;78.20;;;;;;5149959;27;45417;-68
2023/05/23 07:26:37;;;;;;;2.42;1.60;;;20.50;78.20;;;;;;5144214;27;45261;-69
2023/05/23 07:29:05;;;;;;;2.53;1.77;;;20.50;79.20;;;;;;5128718;27;45394;-69
2023/05/23 07:31:32;;;;;;;2.10;1.52;;;20.50;78.30;;;;;;5135497;27;45424;-68
2023/05/23 07:33:59;;;;;;;1.75;1.50;;;20.50;78.20;;;;;;5138865;27;45322;-69
2023/05/23 07:36:26;;;;;;;2.33;1.73;;;20.50;78.40;;;;;;5133461;27;45359;-69
2023/05/23 07:38:53;;;;;;;4.35;1.85;;;20.50;78.70;;;;;;5126317;27;45313;-69
2023/05/23 07:41:20;;;;;;;2.33;1.70;;;20.50;78.70;;;;;;5138011;27;47221;-69
2023/05/23 07:43:47;;;;;;;4.13;1.95;;;20.50;78.70;;;;;;5122656;27;45419;-70
2023/05/23 07:46:16;;;;;;;3.00;1.98;;;20.50;78.70;;;;;;5141143;27;45443;-70
2023/05/23 07:48:42;;;;;;;2.90;1.90;;;20.50;78.70;;;;;;5137576;27;45406;-69
2023/05/23 07:51:09;;;;;;;4.68;1.90;;;20.50;78.70;;;;;;5128342;27;46394;-69
2023/05/23 07:53:38;;;;;;;3.58;1.88;;;20.50;78.70;;;;;;5123700;27;45273;-69
2023/05/23 07:56:05;;;;;;;2.50;1.80;;;20.50;78.70;;;;;;5138100;27;45311;-69
2023/05/23 07:58:32;;;;;;;3.85;2.03;;;20.50;78.60;;;;;;5131839;27;45678;-69
2023/05/23 08:00:59;;;;;;;3.10;1.90;;;20.50;78.60;;;;;;5130771;27;47538;-69
2023/05/23 08:03:27;;;;;;;2.03;1.52;;;20.50;78.70;;;;;;5124335;27;45356;-69
2023/05/23 08:05:53;;;;;;;2.75;1.98;;;20.50;78.60;;;;;;5125474;27;45324;-70
2023/05/23 08:08:20;;;;;;;3.63;1.73;;;20.50;78.60;;;;;;5138997;27;45382;-70
2023/05/23 08:10:47;;;;;;;3.53;2.00;;;20.50;78.70;;;;;;5126502;27;45304;-69
2023/05/23 08:13:15;;;;;;;3.58;1.95;;;20.50;78.70;;;;;;5137187;27;45244;-70
2023/05/23 08:15:42;;;;;;;3.75;2.13;;;20.50;78.70;;;;;;5143302;27;45436;-70
2023/05/23 08:18:08;;;;;;;3.47;2.13;;;20.50;78.70;;;;;;5126962;27;45317;-70
2023/05/23 08:20:36;;;;;;;3.53;2.10;;;20.50;78.40;;;;;;5141172;27;45471;-70
2023/05/23 08:23:03;;;;;;;2.38;1.90;;;20.50;78.40;;;;;;5143094;27;45496;-70
2023/05/23 08:25:30;;;;;;;4.15;2.08;;;20.50;78.50;;;;;;5126267;27;45277;-69
2023/05/23 08:27:58;;;;;;;3.67;2.00;;;20.50;78.50;;;;;;5148541;27;45257;-69
2023/05/23 08:30:25;;;;;;;4.03;2.20;;;20.50;78.50;;;;;;5134486;27;45411;-70
2023/05/23 08:32:52;;;;;;;4.20;2.05;;;20.50;78.70;;;;;;5132168;27;45822;-69
2023/05/23 08:35:19;;;;;;;4.50;1.98;;;20.50;78.60;;;;;;5134145;27;45322;-69
2023/05/23 08:37:48;;;;;;;4.03;2.22;;;20.50;78.40;;;;;;5124565;27;45429;-69
2023/05/23 08:40:19;;;;;;;3.85;2.13;;;20.60;78.40;;;;;;5126551;27;45359;-69
2023/05/23 08:42:46;;;;;;;4.63;2.22;;;20.50;78.20;;;;;;5151723;27;45989;-69
2023/05/23 08:45:13;;;;;;;4.13;2.28;;;20.50;78.00;;;;;;5125392;27;45258;-69
2023/05/23 08:47:43;;;;;;;3.85;2.05;;;20.50;78.10;;;;;;5125853;27;45366;-70
2023/05/23 08:50:12;;;;;;;3.58;1.98;;;20.60;78.10;;;;;;5130576;27;45504;-70
2023/05/23 08:52:47;;;;;;;3.90;2.00;;;20.60;78.00;;;;;;5128247;27;45361;-69
2023/05/23 08:55:17;;;;;;;4.10;2.05;;;20.60;78.00;;;;;;5137005;27;45289;-69
2023/05/23 08:57:44;;;;;;;4.78;1.90;;;20.60;77.90;;;;;;5125693;27;45489;-69
2023/05/23 09:00:13;;;;;;;3.13;2.20;;;20.60;77.90;;;;;;5134377;27;47474;-70
2023/05/23 09:02:40;;;;;;;3.63;2.10;;;20.60;77.80;;;;;;5138954;27;45501;-69
2023/05/23 09:05:09;;;;;;;4.70;2.35;;;20.60;77.70;;;;;;5134154;27;45478;-69
2023/05/23 09:07:36;;;;;;;3.22;1.63;;;20.60;77.70;;;;;;5142604;27;45583;-69
2023/05/23 09:10:03;;;;;;;5.18;2.10;;;20.60;77.70;;;;;;5128146;27;48313;-69
2023/05/23 09:12:32;;;;;;;6.53;2.38;;;20.60;77.60;;;;;;5139547;27;45358;-69
2023/05/23 09:14:59;;;;;;;4.53;2.47;;;20.60;77.50;;;;;;5136064;27;45338;-69
2023/05/23 09:17:25;;;;;;;4.13;2.00;;;20.60;77.40;;;;;;5125272;27;45471;-69
2023/05/23 09:19:52;;;;;;;3.55;2.63;;;20.50;77.30;;;;;;5124842;27;45487;-69
2023/05/23 09:22:24;;;;;;;5.28;2.00;;;20.50;77.30;;;;;;5127261;27;45237;-72
2023/05/23 09:24:52;;;;;;;5.25;2.20;;;20.50;77.30;;;;;;5130391;27;45343;-70
2023/05/23 09:27:21;;;;;;;3.42;1.80;;;20.50;77.80;;;;;;5142773;27;45200;-80
2023/05/23 09:29:50;;;;;;;6.40;2.38;;;20.50;77.50;;;;;;5130638;27;48459;-73
2023/05/23 09:32:18;;;;;;;2.85;1.98;;;20.60;77.50;;;;;;5132530;27;45366;-74
2023/05/23 09:34:56;;;;;;;3.70;1.73;;;20.50;77.10;;;;;;5127063;27;45559;-70
2023/05/23 09:37:30;;;;;;;4.60;2.15;;;20.50;77.00;;;;;;5129896;27;45654;-69
2023/05/23 09:39:57;;;;;;;3.85;2.20;;;20.60;77.00;;;;;;5127829;27;46402;-70
2023/05/23 09:42:24;;;;;;;3.88;1.83;;;20.60;76.90;;;;;;5152214;27;45374;-72
2023/05/23 09:44:53;;;;;;;3.92;2.33;;;20.60;76.80;;;;;;5170860;27;45252;-73
2023/05/23 09:47:20;;;;;;;3.83;1.83;;;20.60;76.60;;;;;;5164835;27;45251;-70
2023/05/23 09:49:47;;;;;;;2.88;1.77;;;20.60;76.60;;;;;;5133678;27;45425;-70
2023/05/23 09:52:14;;;;;;;4.05;2.13;;;20.60;76.50;;;;;;5133482;27;45624;-71
2023/05/23 09:54:41;;;;;;;4.65;2.03;;;20.60;76.30;;;;;;5129325;27;45533;-69
2023/05/23 09:57:10;;;;;;;2.70;1.52;;;20.60;76.00;;;;;;5124401;27;45575;-69
2023/05/23 09:59:41;;;;;;;3.65;2.03;;;20.60;75.80;;;;;;5123985;27;46275;-69
2023/05/23 10:02:12;;;;;;;4.47;2.30;;;20.60;75.60;;;;;;5143198;27;46310;-69
2023/05/23 10:04:40;;;;;;;5.53;2.03;;;20.60;75.40;;;;;;5130662;27;45452;-69
2023/05/23 10:07:14;;;;;;;4.85;1.77;;;20.60;75.40;;;;;;5124535;27;45407;-69
2023/05/23 10:09:45;;;;;;;3.42;1.80;;;20.60;75.40;;;;;;5124309;27;47131;-70
2023/05/23 10:12:44;;;;;;;3.22;1.75;;;20.60;75.60;;;;;;5123773;27;45367;-70
2023/05/23 10:15:15;;;;;;;3.05;1.50;;;20.60;75.40;;;;;;5120436;27;45468;-69
2023/05/23 10:18:00;;;;;;;5.38;1.98;;;20.60;75.20;;;;;;5124625;27;45367;-69
2023/05/23 10:20:31;;;;;;;5.45;1.80;;;20.60;75.10;;;;;;5129825;27;45395;-70
2023/05/23 10:22:59;;;;;;;3.28;1.50;;;20.50;75.00;;;;;;5127982;27;45420;-70
2023/05/23 10:25:27;;;;;;;4.43;1.85;;;20.50;75.00;;;;;;5123158;27;45305;-70
2023/05/23 10:27:57;;;;;;;1.75;1.20;;;20.50;74.90;;;;;;5123357;27;45398;-70
2023/05/23 10:30:24;;;;;;;3.08;1.58;;;20.50;74.70;;;;;;5123746;27;45278;-69
2023/05/23 10:32:54;;;;;;;1.98;1.48;;;20.50;74.70;;;;;;5126098;27;45409;-69
2023/05/23 10:35:28;;;;;;;3.15;1.73;;;20.50;75.40;;;;;;5128649;27;45437;-69
2023/05/23 10:38:04;;;;;;;2.90;1.73;;;20.50;74.30;;;;;;5124323;27;45441;-69
2023/05/23 10:40:37;;;;;;;2.55;1.42;;;20.50;74.20;;;;;;5126456;27;45652;-69
2023/05/23 10:43:13;;;;;;;1.95;1.50;;;20.50;74.30;;;;;;5137165;27;46037;-70
2023/05/23 10:45:42;;;;;;;3.08;1.50;;;20.50;74.20;;;;;;5125742;27;45401;-70
2023/05/23 10:48:22;;;;;;;1.92;1.30;;;20.50;74.10;;;;;;5124336;27;45260;-69
2023/05/23 10:51:04;;;;;;;3.35;2.00;;;20.50;74.10;;;;;;5127836;27;47345;-69
2023/05/23 10:53:31;;;;;;;4.63;1.60;;;20.50;73.80;;;;;;5127588;27;45272;-69
2023/05/23 10:55:58;;;;;;;2.00;1.42;;;20.50;73.90;;;;;;5123282;27;45280;-71
2023/05/23 10:58:25;;;;;;;2.88;1.52;;;20.50;73.80;;;;;;5124133;27;45256;-70
2023/05/23 11:00:53;;;;;;;4.13;1.80;;;20.50;73.60;;;;;;5126402;27;46612;-70
2023/05/23 11:03:37;;;;;;;5.03;2.13;;;20.50;73.60;;;;;;5130763;27;45332;-75
2023/05/23 11:06:31;;;;;;;6.15;2.22;;;20.60;75.70;;;;;;5132855;27;45438;-72
2023/05/23 11:09:05;;;;;;;7.93;2.10;;;20.70;78.90;;;;;;5127353;27;45259;-71
2023/05/23 11:11:56;;;;;;;6.38;2.25;;;20.60;81.40;;;;;;5148272;27;47243;-75
2023/05/23 11:14:32;;;;;;;5.75;2.22;;;20.60;80.40;;;;;;5148295;27;45401;-75
2023/05/23 11:17:00;;;;;;;4.40;1.98;;;20.60;79.60;;;;;;5148654;27;45412;-75
2023/05/23 11:19:28;;;;;;;5.63;2.22;;;20.50;81.00;;;;;;5148052;27;45417;-74
2023/05/23 11:21:58;;;;;;;9.55;2.65;;;20.50;80.30;;;;;;5147897;27;47300;-75
2023/05/23 11:24:50;;;;;;;7.43;2.00;;;20.50;80.20;;;;;;5148052;27;45354;-75
2023/05/23 11:27:19;;;;;;;6.50;2.15;;;20.50;80.10;;;;;;5149885;27;45080;-75
2023/05/23 11:29:56;;;;;;;3.75;1.90;;;20.40;81.70;;;;;;5147874;27;45445;-75
2023/05/23 11:32:24;;;;;;;5.25;2.13;;;20.40;80.10;;;;;;5147876;27;47544;-75
2023/05/23 11:34:52;;;;;;;4.07;1.77;;;21.00;81.20;;;;;;5147673;27;45998;-75
2023/05/23 11:37:20;;;;;;;2.80;1.77;;;20.40;81.10;;;;;;5147928;27;45349;-75
2023/05/23 11:39:46;;;;;;;6.22;1.70;;;20.50;80.80;;;;;;5147764;27;45449;-75
2023/05/23 11:42:13;;;;;;;4.00;1.70;;;20.40;82.30;;;;;;5147678;27;47408;-75
2023/05/23 11:44:40;;;;;;;3.40;1.60;;;20.70;82.50;;;;;;5149872;27;45073;-75
2023/05/23 11:47:07;;;;;;;4.85;1.75;;;20.50;81.30;;;;;;5151542;27;45114;-75
2023/05/23 11:49:36;;;;;;;2.90;1.40;;;20.40;83.90;;;;;;5151242;27;45201;-75
2023/05/23 11:52:06;;;;;;;3.55;1.77;;;20.40;81.30;;;;;;5150931;27;47976;-75
2023/05/23 11:54:33;;;;;;;2.15;1.70;;;21.00;82.40;;;;;;5151054;27;45429;-75
2023/05/23 11:57:02;;;;;;;4.65;1.70;;;20.40;82.60;;;;;;5151776;27;45304;-75
2023/05/23 11:59:29;;;;;;;2.72;1.67;;;21.40;83.80;;;;;;5151137;27;45568;-75
2023/05/23 12:01:56;;;;;;;3.80;1.50;;;20.60;83.00;;;;;;5150993;27;45152;-75
2023/05/23 12:04:25;;;;;;;3.88;1.60;;;20.40;83.80;;;;;;5150900;27;45296;-75
2023/05/23 12:06:52;;;;;;;3.60;1.58;;;20.40;81.70;;;;;;5151571;27;45330;-75
2023/05/23 12:09:21;;;;;;;2.85;1.42;;;20.90;82.80;;;;;;5150903;27;45186;-75
2023/05/23 12:11:49;;;;;;;2.08;1.38;;;20.40;82.60;;;;;;5151001;27;45164;-75
2023/05/23 12:14:17;;;;;;;5.82;1.48;;;20.40;82.10;;;;;;5151071;27;46554;-75
2023/05/23 12:54:06;;;;;;;1.90;1.20;;;20.80;82.50;;;;;;5138442;27;45336;-76
2023/05/23 13:20:21;;;;;;;2.65;1.23;;;20.60;82.40;;;;;;5068182;28;45357;-75
2023/05/23 13:22:51;;;;;;;3.15;1.38;;;19.70;82.80;;;;;;5143663;27;45122;-76
2023/05/23 13:25:18;;;;;;;3.17;1.42;;;22.00;86.60;;;;;;5150006;27;45253;-75
2023/05/23 13:27:46;;;;;;;4.40;1.63;;;20.90;84.90;;;;;;5149243;27;46651;-76
2023/05/23 13:30:14;;;;;;;3.10;1.25;;;20.50;85.10;;;;;;5149617;27;45204;-75
2023/05/23 13:32:41;;;;;;;3.08;1.15;;;20.30;82.10;;;;;;5150031;27;45425;-75
2023/05/23 13:35:08;;;;;;;3.85;1.20;;;20.40;82.60;;;;;;5149389;27;45603;-75
2023/05/23 13:37:36;;;;;;;2.42;1.40;;;20.40;82.30;;;;;;5149137;27;45825;-75
2023/05/23 13:40:05;;;;;;;3.67;1.67;;;20.40;82.50;;;;;;5149310;27;45215;-75
2023/05/23 13:42:32;;;;;;;2.35;1.05;;;20.40;82.40;;;;;;5149783;27;45179;-75
2023/05/23 13:44:59;;;;;;;5.18;1.77;;;20.40;82.10;;;;;;5149806;27;45141;-75
2023/05/23 13:47:25;;;;;;;4.63;1.40;;;20.30;82.10;;;;;;5149272;27;46580;-75
2023/05/23 13:49:52;;;;;;;3.15;1.20;;;20.40;82.10;;;;;;5149177;27;45610;-75
2023/05/23 13:52:19;;;;;;;4.65;1.40;;;20.40;82.20;;;;;;5149262;27;45078;-74
2023/05/23 13:54:47;;;;;;;2.72;1.23;;;20.30;82.10;;;;;;5149246;27;45541;-75